createdAt,value
2023-11-01T00:02:03.011Z,2.70
2023-11-01T00:04:29.805Z,2.85
2023-11-01T00:06:56.660Z,3.38
2023-11-01T00:09:23.458Z,3.40
2023-11-01T00:11:50.188Z,3.88
2023-11-01T00:14:17.427Z,4.38
2023-11-01T00:16:44.529Z,3.50
2023-11-01T00:19:11.388Z,3.53
2023-11-01T00:21:39.767Z,3.40
2023-11-01T00:24:06.745Z,3.75
2023-11-01T00:26:33.557Z,3.20
2023-11-01T00:29:00.386Z,3.40
2023-11-01T00:31:27.182Z,3.67
2023-11-01T00:33:54.115Z,3.58
2023-11-01T00:36:20.912Z,4.00
2023-11-01T00:38:47.691Z,4.50
2023-11-01T00:41:14.469Z,4.15
2023-11-01T00:43:41.270Z,5.65
2023-11-01T00:46:07.992Z,6.18
2023-11-01T00:48:34.870Z,7.65
2023-11-01T00:51:01.702Z,6.90
2023-11-01T00:53:28.592Z,7.22
2023-11-01T00:55:55.349Z,8.15
2023-11-01T00:58:23.853Z,7.57
2023-11-01T01:00:50.664Z,8.32
2023-11-01T01:03:17.823Z,6.93
2023-11-01T01:05:44.765Z,7.57
2023-11-01T01:08:11.839Z,7.28
2023-11-01T01:10:38.684Z,7.13
2023-11-01T01:13:05.614Z,6.22
2023-11-01T01:15:32.364Z,7.13
2023-11-01T01:17:59.458Z,7.40
2023-11-01T01:20:26.460Z,6.70
2023-11-01T01:22:53.297Z,6.45
2023-11-01T01:25:20.086Z,6.85
2023-11-01T01:27:46.828Z,6.82
2023-11-01T01:30:14.234Z,6.63
2023-11-01T01:32:41.039Z,7.07
2023-11-01T01:35:08.169Z,5.32
2023-11-01T01:37:35.037Z,6.15
2023-11-01T01:40:01.849Z,5.50
2023-11-01T01:42:28.620Z,5.45
2023-11-01T01:44:55.426Z,5.15
2023-11-01T01:47:22.693Z,5.15
2023-11-01T01:49:49.548Z,4.32
2023-11-01T01:52:16.648Z,4.38
2023-11-01T01:54:44.141Z,4.10
2023-11-01T01:57:11.642Z,4.30
2023-11-01T01:59:38.912Z,4.22
2023-11-01T02:02:07.522Z,4.70
2023-11-01T02:04:34.594Z,5.55
2023-11-01T02:07:01.442Z,5.22
2023-11-01T02:09:28.307Z,6.38
2023-11-01T02:11:55.057Z,6.82
2023-11-01T02:14:22.586Z,5.75
2023-11-01T02:16:51.644Z,5.68
2023-11-01T02:19:18.649Z,5.63
2023-11-01T02:21:45.372Z,4.85
2023-11-01T02:24:12.212Z,4.22
2023-11-01T02:26:39.004Z,4.35
2023-11-01T02:29:06.322Z,4.00
2023-11-01T02:31:33.372Z,3.90
2023-11-01T02:34:00.269Z,3.90
2023-11-01T02:36:27.166Z,4.18
2023-11-01T02:38:53.903Z,3.88
2023-11-01T02:41:20.694Z,3.60
2023-11-01T02:43:47.442Z,4.13
2023-11-01T02:46:14.185Z,3.63
2023-11-01T02:48:40.993Z,3.75
2023-11-01T02:51:07.872Z,3.92
2023-11-01T02:53:34.681Z,5.32
2023-11-01T02:56:01.493Z,5.97
2023-11-01T02:58:29.777Z,6.70
2023-11-01T03:00:56.573Z,7.10
2023-11-01T03:03:23.557Z,7.28
2023-11-01T03:05:50.692Z,8.02
2023-11-01T03:08:17.607Z,7.63
2023-11-01T03:10:44.493Z,8.57
2023-11-01T03:13:11.391Z,9.15
2023-11-01T03:15:38.522Z,11.93
2023-11-01T03:18:06.173Z,12.27
2023-11-01T03:20:34.388Z,13.27
2023-11-01T03:23:02.292Z,13.30
2023-11-01T03:25:29.416Z,14.00
2023-11-01T03:27:56.346Z,15.73
2023-11-01T03:30:23.587Z,15.52
2023-11-01T03:32:50.938Z,15.55
2023-11-01T03:35:17.830Z,15.88
2023-11-01T03:37:44.619Z,15.48
2023-11-01T03:40:11.461Z,15.25
2023-11-01T03:42:38.225Z,14.55
2023-11-01T03:45:06.045Z,15.77
2023-11-01T03:47:32.883Z,14.30
2023-11-01T03:49:59.692Z,14.85
2023-11-01T03:52:26.502Z,14.48
2023-11-01T03:54:53.216Z,14.55
2023-11-01T03:57:20.725Z,14.48
2023-11-01T03:59:47.611Z,14.43
2023-11-01T04:02:14.388Z,13.98
2023-11-01T04:04:41.156Z,13.02
2023-11-01T04:07:08.051Z,12.80
2023-11-01T04:09:34.841Z,13.27
2023-11-01T04:12:01.636Z,12.60
2023-11-01T04:14:28.501Z,11.10
2023-11-01T04:16:56.583Z,11.05
2023-11-01T04:19:23.377Z,11.52
2023-11-01T04:21:50.125Z,11.75
2023-11-01T04:24:16.846Z,10.63
2023-11-01T04:26:43.764Z,12.02
2023-11-01T04:29:10.498Z,12.07
2023-11-01T04:31:37.323Z,11.50
2023-11-01T04:34:04.135Z,12.15
2023-11-01T04:36:30.932Z,13.07
2023-11-01T04:38:58.432Z,13.23
2023-11-01T04:41:28.741Z,12.80
2023-11-01T04:43:56.316Z,13.17
2023-11-01T04:46:23.122Z,11.80
2023-11-01T04:48:51.226Z,11.65
2023-11-01T04:51:18.429Z,10.68
2023-11-01T04:53:45.893Z,10.82
2023-11-01T04:56:12.921Z,9.35
2023-11-01T04:58:39.813Z,9.85
2023-11-01T05:01:08.712Z,8.88
2023-11-01T05:03:37.777Z,7.75
2023-11-01T05:06:05.709Z,7.70
2023-11-01T05:08:32.628Z,8.70
2023-11-01T05:10:59.842Z,8.55
2023-11-01T05:13:26.603Z,8.30
2023-11-01T05:15:54.223Z,8.77
2023-11-01T05:18:21.179Z,9.10
2023-11-01T05:20:48.128Z,9.60
2023-11-01T05:23:15.053Z,9.70
2023-11-01T05:25:41.994Z,7.97
2023-11-01T05:28:08.892Z,8.00
2023-11-01T05:30:35.723Z,8.52
2023-11-01T05:33:03.085Z,7.40
2023-11-01T05:35:29.928Z,7.43
2023-11-01T05:37:56.732Z,7.65
2023-11-01T05:40:23.582Z,6.57
2023-11-01T05:42:50.335Z,7.25
2023-11-01T05:45:17.947Z,6.65
2023-11-01T05:47:51.908Z,6.82
2023-11-01T05:50:21.220Z,6.35
2023-11-01T05:52:48.010Z,6.50
2023-11-01T05:55:23.826Z,6.80
2023-11-01T05:57:57.081Z,6.82
2023-11-01T06:00:24.199Z,6.85
2023-11-01T06:02:51.147Z,5.45
2023-11-01T06:05:18.150Z,6.05
2023-11-01T06:07:45.016Z,5.43
2023-11-01T06:10:11.924Z,5.70
2023-11-01T06:12:38.894Z,5.45
2023-11-01T06:15:06.379Z,5.30
2023-11-01T06:17:34.267Z,4.45
2023-11-01T06:20:01.837Z,4.22
2023-11-01T06:22:29.206Z,4.70
2023-11-01T06:24:56.070Z,4.22
2023-11-01T06:27:22.851Z,3.97
2023-11-01T06:29:49.621Z,3.75
2023-11-01T06:32:16.422Z,4.00
2023-11-01T06:34:43.202Z,3.67
2023-11-01T06:37:09.974Z,4.38
2023-11-01T06:39:36.947Z,3.75
2023-11-01T06:42:03.853Z,3.83
2023-11-01T06:44:33.702Z,3.95
2023-11-01T06:47:00.474Z,4.03
2023-11-01T06:49:28.859Z,3.58
2023-11-01T06:51:57.616Z,3.40
2023-11-01T06:54:24.338Z,3.70
2023-11-01T06:56:51.171Z,3.67
2023-11-01T06:59:18.034Z,3.88
2023-11-01T07:01:44.825Z,3.75
2023-11-01T07:04:12.231Z,4.32
2023-11-01T07:06:39.364Z,3.70
2023-11-01T07:09:09.083Z,3.95
2023-11-01T07:11:36.270Z,3.58
2023-11-01T07:14:03.153Z,3.90
2023-11-01T07:16:29.968Z,4.00
2023-11-01T07:18:59.153Z,3.53
2023-11-01T07:21:26.214Z,3.45
2023-11-01T07:23:53.046Z,3.40
2023-11-01T07:26:19.880Z,3.47
2023-11-01T07:28:46.758Z,3.38
2023-11-01T07:31:14.773Z,3.45
2023-11-01T07:33:43.603Z,3.97
2023-11-01T07:36:11.992Z,3.75
2023-11-01T07:38:41.569Z,3.97
2023-11-01T07:41:10.215Z,3.55
2023-11-01T07:43:36.981Z,3.70
2023-11-01T07:46:04.042Z,3.80
2023-11-01T07:48:31.041Z,3.50
2023-11-01T07:50:58.717Z,3.97
2023-11-01T07:53:25.453Z,3.90
2023-11-01T07:55:54.574Z,3.63
2023-11-01T07:58:21.575Z,3.83
2023-11-01T08:00:48.402Z,4.10
2023-11-01T08:03:15.256Z,3.40
2023-11-01T08:05:42.450Z,3.92
2023-11-01T08:08:09.664Z,3.53
2023-11-01T08:10:36.706Z,3.97
2023-11-01T08:13:03.732Z,3.70
2023-11-01T08:15:34.331Z,3.33
2023-11-01T08:18:03.656Z,4.00
2023-11-01T08:20:33.919Z,3.83
2023-11-01T08:23:00.764Z,3.78
2023-11-01T08:25:28.148Z,3.70
2023-11-01T08:27:54.991Z,3.28
2023-11-01T08:30:21.822Z,3.38
2023-11-01T08:32:48.889Z,3.40
2023-11-01T08:35:15.913Z,3.65
2023-11-01T08:37:42.773Z,2.88
2023-11-01T08:40:10.274Z,3.05
2023-11-01T08:42:37.041Z,3.10
2023-11-01T08:45:04.044Z,3.97
2023-11-01T08:47:44.478Z,3.38
2023-11-01T08:50:16.108Z,3.15
2023-11-01T08:52:44.810Z,3.13
2023-11-01T08:55:15.811Z,2.95
2023-11-01T08:57:44.426Z,2.92
2023-11-01T09:00:13.848Z,2.50
2023-11-01T09:02:40.897Z,2.72
2023-11-01T09:05:09.187Z,2.80
2023-11-01T09:07:37.673Z,2.78
2023-11-01T09:10:04.789Z,2.92
2023-11-01T09:12:31.659Z,2.20
2023-11-01T09:14:58.738Z,3.45
2023-11-01T09:17:25.947Z,2.75
2023-11-01T09:19:53.214Z,2.40
2023-11-01T09:22:19.939Z,2.55
2023-11-01T09:24:46.654Z,2.50
2023-11-01T09:27:13.575Z,3.10
2023-11-01T09:29:40.431Z,2.83
2023-11-01T09:32:07.757Z,2.35
2023-11-01T09:34:34.476Z,2.10
2023-11-01T09:37:01.253Z,2.53
2023-11-01T09:39:28.113Z,2.92
2023-11-01T09:42:24.932Z,2.40
2023-11-01T09:44:57.260Z,2.60
2023-11-01T09:47:28.563Z,2.47
2023-11-01T09:49:57.006Z,2.63
2023-11-01T09:52:24.944Z,2.92
2023-11-01T09:54:52.243Z,2.30
2023-11-01T09:57:21.908Z,2.67
2023-11-01T09:59:49.005Z,2.47
2023-11-01T10:02:16.209Z,2.58
2023-11-01T10:04:43.395Z,2.35
2023-11-01T10:07:11.712Z,2.78
2023-11-01T10:09:40.460Z,2.55
2023-11-01T10:12:11.008Z,2.63
2023-11-01T10:14:38.489Z,2.30
2023-11-01T10:17:05.797Z,2.60
2023-11-01T10:19:32.979Z,2.53
2023-11-01T10:22:00.110Z,3.00
2023-11-01T10:24:27.403Z,2.55
2023-11-01T10:26:55.877Z,2.22
2023-11-01T10:29:24.384Z,2.20
2023-11-01T10:31:55.130Z,3.00
2023-11-01T10:34:31.303Z,2.43
2023-11-01T10:36:59.818Z,2.58
2023-11-01T10:39:27.566Z,2.53
2023-11-01T10:41:56.167Z,2.38
2023-11-01T10:44:24.527Z,2.50
2023-11-01T10:46:51.720Z,2.45
2023-11-01T10:49:18.554Z,2.33
2023-11-01T10:51:46.074Z,2.38
2023-11-01T10:54:13.519Z,2.15
2023-11-01T10:56:41.124Z,2.13
2023-11-01T10:59:26.535Z,2.63
2023-11-01T11:02:19.663Z,2.50
2023-11-01T11:04:58.162Z,2.65
2023-11-01T11:07:43.975Z,2.38
2023-11-01T11:10:26.824Z,2.70
2023-11-01T11:13:18.395Z,2.55
2023-11-01T11:15:48.926Z,2.25
2023-11-01T11:18:22.219Z,2.55
2023-11-01T11:20:53.242Z,2.00
2023-11-01T11:23:23.182Z,1.95
2023-11-01T11:25:52.602Z,2.30
2023-11-01T11:28:19.528Z,2.20
2023-11-01T11:30:46.734Z,2.00
2023-11-01T11:33:15.382Z,2.20
2023-11-01T11:35:42.961Z,2.40
2023-11-01T11:38:30.437Z,2.45
2023-11-01T11:41:19.115Z,2.35
2023-11-01T11:44:05.041Z,2.55
2023-11-01T11:46:45.653Z,2.05
2023-11-01T11:49:29.483Z,2.45
2023-11-01T11:51:56.275Z,2.22
2023-11-01T11:54:25.084Z,2.10
2023-11-01T11:56:56.811Z,1.77
2023-11-01T11:59:25.807Z,1.95
2023-11-01T12:01:54.775Z,2.38
2023-11-01T12:04:22.395Z,2.20
2023-11-01T12:06:55.083Z,1.90
2023-11-01T12:09:23.221Z,1.90
2023-11-01T12:11:58.542Z,2.42
2023-11-01T12:14:27.702Z,2.00
2023-11-01T12:16:57.352Z,2.33
2023-11-01T12:19:25.691Z,2.28
2023-11-01T12:21:52.486Z,2.88
2023-11-01T12:24:30.036Z,1.77
2023-11-01T12:27:10.975Z,1.60
2023-11-01T12:29:40.791Z,2.25
2023-11-01T12:32:35.286Z,1.77
2023-11-01T12:35:05.841Z,1.77
2023-11-01T12:37:37.502Z,2.22
2023-11-01T12:42:44.227Z,1.90
2023-11-01T12:45:12.041Z,1.80
2023-11-01T12:47:52.577Z,1.85
2023-11-01T12:50:32.446Z,2.03
2023-11-01T12:52:59.485Z,1.95
2023-11-01T12:55:27.541Z,1.95
2023-11-01T12:58:01.049Z,1.63
2023-11-01T13:00:30.244Z,2.00
2023-11-01T13:02:58.341Z,1.90
2023-11-01T13:05:25.500Z,1.85
2023-11-01T13:07:56.741Z,2.10
2023-11-01T13:10:23.583Z,2.10
2023-11-01T13:12:50.584Z,1.75
2023-11-01T13:15:17.961Z,2.40
2023-11-01T13:17:45.509Z,1.90
2023-11-01T13:20:12.631Z,2.28
2023-11-01T13:22:39.382Z,2.13
2023-11-01T13:25:07.508Z,1.83
2023-11-01T13:27:34.369Z,2.08
2023-11-01T13:30:01.350Z,1.73
2023-11-01T13:32:28.357Z,1.67
2023-11-01T13:34:55.984Z,1.70
2023-11-01T13:37:22.857Z,1.83
2023-11-01T13:39:49.797Z,2.00
2023-11-01T13:42:17.185Z,2.08
2023-11-01T13:44:45.258Z,2.10
2023-11-01T13:47:12.883Z,1.83
2023-11-01T13:49:41.892Z,1.83
2023-11-01T13:52:12.505Z,2.03
2023-11-01T13:54:39.722Z,1.65
2023-11-01T13:57:06.659Z,1.70
2023-11-01T13:59:33.532Z,1.60
2023-11-01T14:02:00.657Z,2.10
2023-11-01T14:04:27.751Z,1.75
2023-11-01T14:06:54.750Z,2.17
2023-11-01T14:09:22.311Z,1.75
2023-11-01T14:11:53.192Z,1.98
2023-11-01T14:14:21.617Z,1.85
2023-11-01T14:16:48.764Z,1.58
2023-11-01T14:19:15.665Z,1.67
2023-11-01T14:21:42.707Z,2.03
2023-11-01T14:24:11.147Z,1.80
2023-11-01T14:26:39.080Z,2.20
2023-11-01T14:29:06.193Z,2.38
2023-11-01T14:31:33.084Z,1.90
2023-11-01T14:34:00.021Z,2.22
2023-11-01T14:36:27.144Z,1.35
2023-11-01T14:38:54.152Z,2.05
2023-11-01T14:41:21.488Z,1.50
2023-11-01T14:43:48.261Z,2.10
2023-11-01T14:46:15.200Z,2.00
2023-11-01T14:48:44.772Z,2.03
2023-11-01T14:51:11.745Z,1.70
2023-11-01T14:53:38.903Z,1.60
2023-11-01T14:56:17.926Z,1.80
2023-11-01T14:58:48.211Z,1.65
2023-11-01T15:01:15.700Z,1.50
2023-11-01T15:03:43.388Z,1.65
2023-11-01T15:06:10.812Z,1.40
2023-11-01T15:08:42.744Z,1.50
2023-11-01T15:11:12.625Z,1.60
2023-11-01T15:13:39.795Z,1.77
2023-11-01T15:16:07.342Z,1.65
2023-11-01T15:18:34.419Z,1.55
2023-11-01T15:21:01.488Z,1.95
2023-11-01T15:23:28.354Z,1.50
2023-11-01T15:25:57.009Z,1.48
2023-11-01T15:28:23.823Z,1.90
2023-11-01T15:30:50.613Z,1.60
2023-11-01T15:33:19.815Z,1.50
2023-11-01T15:35:46.730Z,1.63
2023-11-01T15:38:13.803Z,1.42
2023-11-01T15:40:40.661Z,1.58
2023-11-01T15:43:08.150Z,1.63
2023-11-01T15:45:35.080Z,1.60
2023-11-01T15:48:02.133Z,1.50
2023-11-01T15:50:31.009Z,1.42
2023-11-01T15:52:57.990Z,1.35
2023-11-01T15:55:25.328Z,1.45
2023-11-01T15:57:52.149Z,1.30
2023-11-01T16:00:19.078Z,1.42
2023-11-01T16:02:46.931Z,1.55
2023-11-01T16:05:13.990Z,1.70
2023-11-01T16:07:41.243Z,1.75
2023-11-01T16:10:08.700Z,1.60
2023-11-01T16:12:35.487Z,1.70
2023-11-01T16:15:02.486Z,1.90
2023-11-01T16:17:29.310Z,1.83
2023-11-01T16:19:57.250Z,1.50
2023-11-01T16:22:26.562Z,1.98
2023-11-01T16:24:53.350Z,2.05
2023-11-01T16:27:22.604Z,1.60
2023-11-01T16:29:49.972Z,1.70
2023-11-01T16:32:16.974Z,1.92
2023-11-01T16:34:46.054Z,1.73
2023-11-01T16:37:13.843Z,2.15
2023-11-01T16:39:40.604Z,1.60
2023-11-01T16:42:09.132Z,1.73
2023-11-01T16:44:36.026Z,1.85
2023-11-01T16:47:02.853Z,1.75
2023-11-01T16:49:29.692Z,2.00
2023-11-01T16:51:56.485Z,1.73
2023-11-01T16:54:23.360Z,2.08
2023-11-01T16:56:50.198Z,1.88
2023-11-01T16:59:17.344Z,1.98
2023-11-01T17:01:44.156Z,1.70
2023-11-01T17:04:11.224Z,1.67
2023-11-01T17:06:38.175Z,1.63
2023-11-01T17:09:05.343Z,2.00
2023-11-01T17:11:32.481Z,2.00
2023-11-01T17:13:59.275Z,1.80
2023-11-01T17:16:26.240Z,2.05
2023-11-01T17:18:53.997Z,2.08
2023-11-01T17:21:20.861Z,2.10
2023-11-01T17:23:48.006Z,1.88
2023-11-01T17:26:30.252Z,1.50
2023-11-01T17:28:58.778Z,1.70
2023-11-01T17:31:48.159Z,2.00
2023-11-01T17:34:44.462Z,1.52
2023-11-01T17:37:12.856Z,1.65
2023-11-01T17:39:42.126Z,1.90
2023-11-01T17:42:11.917Z,1.65
2023-11-01T17:44:41.585Z,2.08
2023-11-01T17:47:10.392Z,1.45
2023-11-01T17:49:48.975Z,1.90
2023-11-01T17:52:36.438Z,2.20
2023-11-01T17:55:05.637Z,1.40
2023-11-01T17:57:34.531Z,1.63
2023-11-01T18:00:05.900Z,1.50
2023-11-01T18:02:32.923Z,1.58
2023-11-01T18:05:01.287Z,1.60
2023-11-01T18:07:28.220Z,1.90
2023-11-01T18:09:58.332Z,1.50
2023-11-01T18:12:25.228Z,1.65
2023-11-01T18:14:55.256Z,1.77
2023-11-01T18:17:23.028Z,1.52
2023-11-01T18:19:50.079Z,1.80
2023-11-01T18:22:45.999Z,1.50
2023-11-01T18:25:47.960Z,1.83
2023-11-01T18:30:44.352Z,1.40
2023-11-01T18:33:11.685Z,1.70
2023-11-01T18:35:38.680Z,1.90
2023-11-01T18:38:09.396Z,1.88
2023-11-01T18:40:36.166Z,1.90
2023-11-01T18:43:02.978Z,1.88
2023-11-01T18:45:31.924Z,2.00
2023-11-01T18:48:00.024Z,1.95
2023-11-01T18:50:26.911Z,2.40
2023-11-01T18:52:54.635Z,2.08
2023-11-01T18:55:32.771Z,2.20
2023-11-01T18:57:59.543Z,1.63
2023-11-01T19:00:29.599Z,1.95
2023-11-01T19:03:05.089Z,1.63
2023-11-01T19:05:33.779Z,1.83
2023-11-01T19:08:01.507Z,2.10
2023-11-01T19:10:40.153Z,1.98
2023-11-01T19:13:07.531Z,2.08
2023-11-01T19:15:40.113Z,1.67
2023-11-01T19:18:09.806Z,1.98
2023-11-01T19:20:37.948Z,1.52
2023-11-01T19:23:05.147Z,1.77
2023-11-01T19:25:31.962Z,1.77
2023-11-01T19:27:58.715Z,1.67
2023-11-01T19:30:25.542Z,1.80
2023-11-01T19:32:52.418Z,1.60
2023-11-01T19:35:19.197Z,1.50
2023-11-01T19:37:46.054Z,1.73
2023-11-01T19:40:12.853Z,1.70
2023-11-01T19:42:39.625Z,1.83
2023-11-01T19:45:08.004Z,1.88
2023-11-01T19:47:37.244Z,1.63
2023-11-01T19:50:05.528Z,1.55
2023-11-01T19:52:32.498Z,1.92
2023-11-01T19:54:59.229Z,1.98
2023-11-01T19:57:26.002Z,1.65
2023-11-01T19:59:52.746Z,1.95
2023-11-01T20:02:21.603Z,1.70
2023-11-01T20:04:49.916Z,2.55
2023-11-01T20:07:17.205Z,2.05
2023-11-01T20:09:44.151Z,1.85
2023-11-01T20:12:12.277Z,2.30
2023-11-01T20:14:41.317Z,2.22
2023-11-01T20:17:11.694Z,2.15
2023-11-01T20:19:38.484Z,2.05
2023-11-01T20:22:05.409Z,2.28
2023-11-01T20:24:32.192Z,2.70
2023-11-01T20:26:58.991Z,1.88
2023-11-01T20:29:27.521Z,2.67
2023-11-01T20:31:54.470Z,2.30
2023-11-01T20:34:21.553Z,2.10
2023-11-01T20:36:48.338Z,2.20
2023-11-01T20:39:15.169Z,2.08
2023-11-01T20:41:42.038Z,2.03
2023-11-01T20:44:08.923Z,2.25
2023-11-01T20:46:35.758Z,2.20
2023-11-01T20:49:02.698Z,2.08
2023-11-01T20:51:29.863Z,2.10
2023-11-01T20:53:59.318Z,2.10
2023-11-01T20:56:26.305Z,1.90
2023-11-01T20:58:53.083Z,2.45
2023-11-01T21:01:19.971Z,2.13
2023-11-01T21:03:47.807Z,2.10
2023-11-01T21:06:14.785Z,2.17
2023-11-01T21:08:42.456Z,2.13
2023-11-01T21:11:09.365Z,2.17
2023-11-01T21:13:36.176Z,1.73
2023-11-01T21:16:03.438Z,2.20
2023-11-01T21:18:32.478Z,1.65
2023-11-01T21:21:01.664Z,2.42
2023-11-01T21:23:28.893Z,1.92
2023-11-01T21:25:55.709Z,2.03
2023-11-01T21:28:22.520Z,1.90
2023-11-01T21:30:49.309Z,1.70
2023-11-01T21:33:21.918Z,1.95
2023-11-01T21:35:48.924Z,1.98
2023-11-01T21:38:17.914Z,2.05
2023-11-01T21:40:47.936Z,2.00
2023-11-01T21:43:18.393Z,1.90
2023-11-01T21:45:50.314Z,1.70
2023-11-01T21:48:24.650Z,2.47
2023-11-01T21:51:03.497Z,1.65
2023-11-01T21:53:34.036Z,2.30
2023-11-01T21:56:01.540Z,2.13
2023-11-01T21:58:29.147Z,2.17
2023-11-01T22:01:03.275Z,2.20
2023-11-01T22:03:48.301Z,2.33
2023-11-01T22:06:17.208Z,2.20
2023-11-01T22:08:59.640Z,1.77
2023-11-01T22:11:34.750Z,2.03
2023-11-01T22:14:05.871Z,2.38
2023-11-01T22:16:35.089Z,2.13
2023-11-01T22:19:07.021Z,2.10
2023-11-01T22:21:38.618Z,2.33
2023-11-01T22:24:07.493Z,1.75
2023-11-01T22:26:34.974Z,2.33
2023-11-01T22:29:07.282Z,2.35
2023-11-01T22:31:49.258Z,2.50
2023-11-01T22:34:16.232Z,2.70
2023-11-01T22:36:48.656Z,3.08
2023-11-01T22:39:41.384Z,2.78
2023-11-01T22:42:12.684Z,2.10
2023-11-01T22:44:41.545Z,2.45
2023-11-01T22:47:08.374Z,2.33
2023-11-01T22:49:35.150Z,2.17
2023-11-01T22:52:02.064Z,2.40
2023-11-01T22:54:29.468Z,2.58
2023-11-01T22:56:57.166Z,2.10
2023-11-01T22:59:23.983Z,2.15
2023-11-01T23:01:51.140Z,2.42
2023-11-01T23:04:19.313Z,2.28
2023-11-01T23:06:47.742Z,2.70
2023-11-01T23:09:15.635Z,2.58
2023-11-01T23:11:42.682Z,2.30
2023-11-01T23:14:10.351Z,2.60
2023-11-01T23:16:39.086Z,2.15
2023-11-01T23:19:09.152Z,2.20
2023-11-01T23:21:36.544Z,2.00
2023-11-01T23:24:12.105Z,2.80
2023-11-01T23:26:55.678Z,2.50
2023-11-01T23:29:34.213Z,2.33
2023-11-01T23:32:04.268Z,2.42
2023-11-01T23:34:43.273Z,2.28
2023-11-01T23:37:19.294Z,2.13
2023-11-01T23:40:06.192Z,2.42
2023-11-01T23:42:34.219Z,2.20
2023-11-01T23:45:06.392Z,2.20
2023-11-01T23:47:52.784Z,2.10
2023-11-01T23:50:43.571Z,2.45
2023-11-01T23:53:18.181Z,2.72
2023-11-01T23:55:50.700Z,2.15
2023-11-01T23:58:30.155Z,2.20
